sensor_id;sensor_type;location;lat;lon;timestamp;P1;durP1;ratioP1;P2;durP2;ratioP2
36817;SDS011;22761;51.542;16.450;2022-12-29T00:02:02;12.77;;;7.03;;
36817;SDS011;22761;51.542;16.450;2022-12-29T00:04:29;13.13;;;7.30;;
36817;SDS011;22761;51.542;16.450;2022-12-29T00:06:56;15.63;;;8.13;;
36817;SDS011;22761;51.542;16.450;2022-12-29T00:09:25;13.83;;;6.40;;
36817;SDS011;22761;51.542;16.450;2022-12-29T00:11:52;16.53;;;6.70;;
36817;SDS011;22761;51.542;16.450;2022-12-29T00:14:19;11.43;;;4.87;;
36817;SDS011;22761;51.542;16.450;2022-12-29T00:17:05;12.37;;;6.10;;
36817;SDS011;22761;51.542;16.450;2022-12-29T00:19:32;10.17;;;5.03;;
36817;SDS011;22761;51.542;16.450;2022-12-29T00:22:18;9.63;;;5.37;;
36817;SDS011;22761;51.542;16.450;2022-12-29T00:25:03;10.23;;;5.70;;
36817;SDS011;22761;51.542;16.450;2022-12-29T00:27:50;8.53;;;5.00;;
36817;SDS011;22761;51.542;16.450;2022-12-29T00:30:35;10.90;;;5.40;;
36817;SDS011;22761;51.542;16.450;2022-12-29T00:33:22;8.23;;;4.47;;
36817;SDS011;22761;51.542;16.450;2022-12-29T00:39:01;7.43;;;3.90;;
36817;SDS011;22761;51.542;16.450;2022-12-29T00:41:50;6.80;;;4.57;;
36817;SDS011;22761;51.542;16.450;2022-12-29T00:44:36;7.33;;;4.43;;
36817;SDS011;22761;51.542;16.450;2022-12-29T00:47:03;7.40;;;4.00;;
36817;SDS011;22761;51.542;16.450;2022-12-29T00:49:31;6.83;;;4.03;;
36817;SDS011;22761;51.542;16.450;2022-12-29T00:52:07;6.90;;;3.63;;
36817;SDS011;22761;51.542;16.450;2022-12-29T00:54:38;8.07;;;3.90;;
36817;SDS011;22761;51.542;16.450;2022-12-29T00:57:08;8.07;;;4.67;;
36817;SDS011;22761;51.542;16.450;2022-12-29T00:59:37;8.43;;;4.83;;
36817;SDS011;22761;51.542;16.450;2022-12-29T01:02:09;11.43;;;6.63;;
36817;SDS011;22761;51.542;16.450;2022-12-29T01:04:37;11.47;;;6.50;;
36817;SDS011;22761;51.542;16.450;2022-12-29T01:07:04;9.73;;;4.70;;
36817;SDS011;22761;51.542;16.450;2022-12-29T01:09:31;13.63;;;6.13;;
36817;SDS011;22761;51.542;16.450;2022-12-29T01:12:17;9.47;;;5.20;;
36817;SDS011;22761;51.542;16.450;2022-12-29T01:14:46;9.93;;;6.03;;
36817;SDS011;22761;51.542;16.450;2022-12-29T01:17:13;12.43;;;8.40;;
36817;SDS011;22761;51.542;16.450;2022-12-29T01:19:40;14.37;;;6.07;;
36817;SDS011;22761;51.542;16.450;2022-12-29T01:22:07;10.33;;;4.63;;
36817;SDS011;22761;51.542;16.450;2022-12-29T01:24:34;10.03;;;5.87;;
36817;SDS011;22761;51.542;16.450;2022-12-29T01:27:18;11.77;;;6.97;;
36817;SDS011;22761;51.542;16.450;2022-12-29T01:29:39;10.27;;;6.20;;
36817;SDS011;22761;51.542;16.450;2022-12-29T01:32:06;13.37;;;6.10;;
36817;SDS011;22761;51.542;16.450;2022-12-29T01:34:33;9.37;;;4.53;;
36817;SDS011;22761;51.542;16.450;2022-12-29T01:37:00;9.37;;;3.63;;
36817;SDS011;22761;51.542;16.450;2022-12-29T01:39:27;6.63;;;4.00;;
36817;SDS011;22761;51.542;16.450;2022-12-29T01:41:54;7.90;;;3.37;;
36817;SDS011;22761;51.542;16.450;2022-12-29T01:47:19;5.50;;;3.30;;
36817;SDS011;22761;51.542;16.450;2022-12-29T01:50:09;7.50;;;3.77;;
36817;SDS011;22761;51.542;16.450;2022-12-29T01:53:03;9.07;;;4.00;;
36817;SDS011;22761;51.542;16.450;2022-12-29T01:55:44;6.77;;;3.80;;
36817;SDS011;22761;51.542;16.450;2022-12-29T01:58:17;8.73;;;3.53;;
36817;SDS011;22761;51.542;16.450;2022-12-29T02:00:48;5.83;;;3.53;;
36817;SDS011;22761;51.542;16.450;2022-12-29T02:03:16;6.57;;;3.50;;
36817;SDS011;22761;51.542;16.450;2022-12-29T02:08:21;7.03;;;3.47;;
36817;SDS011;22761;51.542;16.450;2022-12-29T02:10:50;5.75;;;3.10;;
36817;SDS011;22761;51.542;16.450;2022-12-29T02:13:20;5.58;;;3.17;;
36817;SDS011;22761;51.542;16.450;2022-12-29T02:18:54;4.67;;;2.80;;
36817;SDS011;22761;51.542;16.450;2022-12-29T02:27:31;4.83;;;2.70;;
36817;SDS011;22761;51.542;16.450;2022-12-29T02:35:52;7.23;;;3.53;;
36817;SDS011;22761;51.542;16.450;2022-12-29T02:38:48;5.57;;;2.90;;
36817;SDS011;22761;51.542;16.450;2022-12-29T02:44:43;3.27;;;2.27;;
36817;SDS011;22761;51.542;16.450;2022-12-29T02:50:31;5.57;;;2.73;;
36817;SDS011;22761;51.542;16.450;2022-12-29T02:53:06;4.63;;;2.53;;
36817;SDS011;22761;51.542;16.450;2022-12-29T02:55:37;4.20;;;2.57;;
36817;SDS011;22761;51.542;16.450;2022-12-29T03:12:24;5.40;;;2.30;;
36817;SDS011;22761;51.542;16.450;2022-12-29T03:15:33;3.50;;;1.90;;
36817;SDS011;22761;51.542;16.450;2022-12-29T03:18:40;3.37;;;2.03;;
36817;SDS011;22761;51.542;16.450;2022-12-29T03:21:19;4.72;;;1.98;;
36817;SDS011;22761;51.542;16.450;2022-12-29T03:23:46;3.77;;;1.83;;
36817;SDS011;22761;51.542;16.450;2022-12-29T03:26:16;3.60;;;1.90;;
36817;SDS011;22761;51.542;16.450;2022-12-29T03:28:50;2.75;;;1.72;;
36817;SDS011;22761;51.542;16.450;2022-12-29T03:31:21;2.63;;;1.70;;
36817;SDS011;22761;51.542;16.450;2022-12-29T03:33:50;3.90;;;1.90;;
36817;SDS011;22761;51.542;16.450;2022-12-29T03:36:32;6.03;;;1.87;;
36817;SDS011;22761;51.542;16.450;2022-12-29T03:39:10;3.17;;;1.87;;
36817;SDS011;22761;51.542;16.450;2022-12-29T03:41:43;3.57;;;1.87;;
36817;SDS011;22761;51.542;16.450;2022-12-29T03:44:12;3.33;;;1.62;;
36817;SDS011;22761;51.542;16.450;2022-12-29T03:46:40;2.80;;;1.67;;
36817;SDS011;22761;51.542;16.450;2022-12-29T03:49:07;4.17;;;1.73;;
36817;SDS011;22761;51.542;16.450;2022-12-29T03:51:34;4.77;;;1.90;;
36817;SDS011;22761;51.542;16.450;2022-12-29T03:54:02;5.90;;;1.77;;
36817;SDS011;22761;51.542;16.450;2022-12-29T03:56:29;3.57;;;1.60;;
36817;SDS011;22761;51.542;16.450;2022-12-29T03:58:57;3.30;;;1.60;;
36817;SDS011;22761;51.542;16.450;2022-12-29T04:01:29;3.07;;;1.67;;
36817;SDS011;22761;51.542;16.450;2022-12-29T04:03:56;2.63;;;1.80;;
36817;SDS011;22761;51.542;16.450;2022-12-29T04:06:23;3.87;;;1.70;;
36817;SDS011;22761;51.542;16.450;2022-12-29T04:08:54;2.40;;;1.43;;
36817;SDS011;22761;51.542;16.450;2022-12-29T04:11:21;2.87;;;1.43;;
36817;SDS011;22761;51.542;16.450;2022-12-29T04:13:49;2.37;;;1.40;;
36817;SDS011;22761;51.542;16.450;2022-12-29T04:16:18;3.30;;;1.90;;
36817;SDS011;22761;51.542;16.450;2022-12-29T04:18:45;3.80;;;1.67;;
36817;SDS011;22761;51.542;16.450;2022-12-29T04:21:12;3.07;;;1.77;;
36817;SDS011;22761;51.542;16.450;2022-12-29T04:23:40;4.40;;;1.63;;
36817;SDS011;22761;51.542;16.450;2022-12-29T04:26:09;3.03;;;1.73;;
36817;SDS011;22761;51.542;16.450;2022-12-29T04:28:47;4.17;;;2.47;;
36817;SDS011;22761;51.542;16.450;2022-12-29T04:31:15;4.37;;;1.93;;
36817;SDS011;22761;51.542;16.450;2022-12-29T04:33:44;5.67;;;1.97;;
36817;SDS011;22761;51.542;16.450;2022-12-29T04:36:11;3.93;;;1.90;;
36817;SDS011;22761;51.542;16.450;2022-12-29T04:38:38;3.97;;;2.10;;
36817;SDS011;22761;51.542;16.450;2022-12-29T04:41:06;3.70;;;2.00;;
36817;SDS011;22761;51.542;16.450;2022-12-29T04:43:35;3.63;;;1.97;;
36817;SDS011;22761;51.542;16.450;2022-12-29T04:46:04;3.70;;;1.80;;
36817;SDS011;22761;51.542;16.450;2022-12-29T04:48:49;3.43;;;1.80;;
36817;SDS011;22761;51.542;16.450;2022-12-29T04:51:31;4.30;;;2.13;;
36817;SDS011;22761;51.542;16.450;2022-12-29T04:53:58;2.83;;;1.60;;
36817;SDS011;22761;51.542;16.450;2022-12-29T04:56:26;3.83;;;1.80;;
36817;SDS011;22761;51.542;16.450;2022-12-29T04:58:53;4.63;;;2.10;;
36817;SDS011;22761;51.542;16.450;2022-12-29T05:01:21;5.40;;;1.90;;
36817;SDS011;22761;51.542;16.450;2022-12-29T05:03:49;4.37;;;1.70;;
36817;SDS011;22761;51.542;16.450;2022-12-29T05:06:18;3.50;;;1.93;;
36817;SDS011;22761;51.542;16.450;2022-12-29T05:08:45;3.97;;;2.10;;
36817;SDS011;22761;51.542;16.450;2022-12-29T05:11:12;4.20;;;2.17;;
36817;SDS011;22761;51.542;16.450;2022-12-29T05:13:39;3.50;;;1.90;;
36817;SDS011;22761;51.542;16.450;2022-12-29T05:16:07;5.93;;;1.87;;
36817;SDS011;22761;51.542;16.450;2022-12-29T05:18:34;6.07;;;2.57;;
36817;SDS011;22761;51.542;16.450;2022-12-29T05:21:02;7.73;;;3.27;;
36817;SDS011;22761;51.542;16.450;2022-12-29T05:23:30;6.93;;;3.70;;
36817;SDS011;22761;51.542;16.450;2022-12-29T05:26:02;3.20;;;1.93;;
36817;SDS011;22761;51.542;16.450;2022-12-29T05:28:47;6.27;;;3.17;;
36817;SDS011;22761;51.542;16.450;2022-12-29T05:31:16;3.27;;;1.60;;
36817;SDS011;22761;51.542;16.450;2022-12-29T05:33:44;3.10;;;1.70;;
36817;SDS011;22761;51.542;16.450;2022-12-29T05:36:11;3.23;;;1.80;;
36817;SDS011;22761;51.542;16.450;2022-12-29T05:38:41;2.60;;;1.60;;
36817;SDS011;22761;51.542;16.450;2022-12-29T05:41:08;3.67;;;1.80;;
36817;SDS011;22761;51.542;16.450;2022-12-29T05:43:40;2.53;;;1.50;;
36817;SDS011;22761;51.542;16.450;2022-12-29T05:46:09;2.80;;;1.40;;
36817;SDS011;22761;51.542;16.450;2022-12-29T05:48:38;2.27;;;1.40;;
36817;SDS011;22761;51.542;16.450;2022-12-29T05:51:07;4.30;;;1.87;;
36817;SDS011;22761;51.542;16.450;2022-12-29T05:53:42;2.70;;;1.70;;
36817;SDS011;22761;51.542;16.450;2022-12-29T05:56:09;3.03;;;2.00;;
36817;SDS011;22761;51.542;16.450;2022-12-29T05:58:36;4.90;;;1.73;;
36817;SDS011;22761;51.542;16.450;2022-12-29T06:01:03;3.10;;;1.67;;
36817;SDS011;22761;51.542;16.450;2022-12-29T06:03:32;4.23;;;1.93;;
36817;SDS011;22761;51.542;16.450;2022-12-29T06:05:59;4.60;;;1.90;;
36817;SDS011;22761;51.542;16.450;2022-12-29T06:08:26;4.43;;;1.57;;
36817;SDS011;22761;51.542;16.450;2022-12-29T06:10:53;2.77;;;1.57;;
36817;SDS011;22761;51.542;16.450;2022-12-29T06:13:21;4.33;;;2.03;;
36817;SDS011;22761;51.542;16.450;2022-12-29T06:15:49;4.03;;;2.10;;
36817;SDS011;22761;51.542;16.450;2022-12-29T06:18:18;3.20;;;1.70;;
36817;SDS011;22761;51.542;16.450;2022-12-29T06:20:45;2.03;;;1.47;;
36817;SDS011;22761;51.542;16.450;2022-12-29T06:23:12;3.17;;;1.80;;
36817;SDS011;22761;51.542;16.450;2022-12-29T06:25:42;3.63;;;1.53;;
36817;SDS011;22761;51.542;16.450;2022-12-29T06:28:09;6.33;;;3.07;;
36817;SDS011;22761;51.542;16.450;2022-12-29T06:30:36;4.43;;;2.67;;
36817;SDS011;22761;51.542;16.450;2022-12-29T06:33:04;6.93;;;2.77;;
36817;SDS011;22761;51.542;16.450;2022-12-29T06:35:31;5.03;;;2.70;;
36817;SDS011;22761;51.542;16.450;2022-12-29T06:37:59;3.50;;;2.30;;
36817;SDS011;22761;51.542;16.450;2022-12-29T06:40:26;5.23;;;2.20;;
36817;SDS011;22761;51.542;16.450;2022-12-29T06:43:11;10.93;;;5.30;;
36817;SDS011;22761;51.542;16.450;2022-12-29T06:45:50;9.03;;;3.60;;
36817;SDS011;22761;51.542;16.450;2022-12-29T06:48:17;7.20;;;3.40;;
36817;SDS011;22761;51.542;16.450;2022-12-29T06:50:44;4.33;;;2.60;;
36817;SDS011;22761;51.542;16.450;2022-12-29T06:53:11;4.73;;;3.00;;
36817;SDS011;22761;51.542;16.450;2022-12-29T06:55:38;5.20;;;2.60;;
36817;SDS011;22761;51.542;16.450;2022-12-29T06:58:05;3.67;;;2.20;;
36817;SDS011;22761;51.542;16.450;2022-12-29T07:00:32;5.00;;;2.63;;
36817;SDS011;22761;51.542;16.450;2022-12-29T07:02:59;4.57;;;2.17;;
36817;SDS011;22761;51.542;16.450;2022-12-29T07:05:26;4.07;;;2.40;;
36817;SDS011;22761;51.542;16.450;2022-12-29T07:07:54;3.70;;;2.37;;
36817;SDS011;22761;51.542;16.450;2022-12-29T07:10:22;4.13;;;2.10;;
36817;SDS011;22761;51.542;16.450;2022-12-29T07:12:49;3.83;;;1.90;;
36817;SDS011;22761;51.542;16.450;2022-12-29T07:15:16;3.90;;;2.00;;
36817;SDS011;22761;51.542;16.450;2022-12-29T07:17:44;4.27;;;2.00;;
36817;SDS011;22761;51.542;16.450;2022-12-29T07:20:11;3.40;;;2.10;;
36817;SDS011;22761;51.542;16.450;2022-12-29T07:22:38;4.00;;;2.40;;
36817;SDS011;22761;51.542;16.450;2022-12-29T07:25:05;3.80;;;2.20;;
36817;SDS011;22761;51.542;16.450;2022-12-29T07:27:33;3.10;;;2.10;;
36817;SDS011;22761;51.542;16.450;2022-12-29T07:30:00;4.23;;;2.50;;
36817;SDS011;22761;51.542;16.450;2022-12-29T07:32:27;5.43;;;2.27;;
36817;SDS011;22761;51.542;16.450;2022-12-29T07:34:56;3.67;;;2.20;;
36817;SDS011;22761;51.542;16.450;2022-12-29T07:37:23;4.27;;;2.53;;
36817;SDS011;22761;51.542;16.450;2022-12-29T07:39:50;5.47;;;2.43;;
36817;SDS011;22761;51.542;16.450;2022-12-29T07:42:17;4.77;;;2.30;;
36817;SDS011;22761;51.542;16.450;2022-12-29T07:44:46;5.20;;;2.47;;
36817;SDS011;22761;51.542;16.450;2022-12-29T07:47:27;4.33;;;2.63;;
36817;SDS011;22761;51.542;16.450;2022-12-29T07:49:55;8.33;;;4.17;;
36817;SDS011;22761;51.542;16.450;2022-12-29T07:52:21;7.27;;;2.90;;
36817;SDS011;22761;51.542;16.450;2022-12-29T07:54:49;6.20;;;3.13;;
36817;SDS011;22761;51.542;16.450;2022-12-29T07:57:16;5.80;;;2.60;;
36817;SDS011;22761;51.542;16.450;2022-12-29T07:59:43;4.47;;;2.60;;
36817;SDS011;22761;51.542;16.450;2022-12-29T08:02:10;7.27;;;3.47;;
36817;SDS011;22761;51.542;16.450;2022-12-29T08:04:37;7.23;;;4.00;;
36817;SDS011;22761;51.542;16.450;2022-12-29T08:07:05;7.47;;;4.27;;
36817;SDS011;22761;51.542;16.450;2022-12-29T08:09:32;7.80;;;4.40;;
36817;SDS011;22761;51.542;16.450;2022-12-29T08:11:59;5.97;;;3.27;;
36817;SDS011;22761;51.542;16.450;2022-12-29T08:14:26;6.70;;;2.97;;
36817;SDS011;22761;51.542;16.450;2022-12-29T08:16:54;5.80;;;3.70;;
36817;SDS011;22761;51.542;16.450;2022-12-29T08:19:21;5.23;;;2.77;;
36817;SDS011;22761;51.542;16.450;2022-12-29T08:21:49;4.60;;;2.83;;
36817;SDS011;22761;51.542;16.450;2022-12-29T08:24:21;4.67;;;2.80;;
36817;SDS011;22761;51.542;16.450;2022-12-29T08:26:54;4.77;;;2.70;;
36817;SDS011;22761;51.542;16.450;2022-12-29T08:29:25;4.78;;;2.37;;
36817;SDS011;22761;51.542;16.450;2022-12-29T08:31:52;4.47;;;2.43;;
36817;SDS011;22761;51.542;16.450;2022-12-29T08:34:19;4.77;;;2.37;;
36817;SDS011;22761;51.542;16.450;2022-12-29T08:36:46;4.40;;;2.43;;
36817;SDS011;22761;51.542;16.450;2022-12-29T08:39:14;4.10;;;2.43;;
36817;SDS011;22761;51.542;16.450;2022-12-29T08:41:41;4.20;;;2.30;;
36817;SDS011;22761;51.542;16.450;2022-12-29T08:44:09;3.53;;;2.33;;
36817;SDS011;22761;51.542;16.450;2022-12-29T08:46:36;7.53;;;2.53;;
36817;SDS011;22761;51.542;16.450;2022-12-29T08:49:03;5.37;;;2.70;;
36817;SDS011;22761;51.542;16.450;2022-12-29T08:51:30;5.63;;;3.00;;
36817;SDS011;22761;51.542;16.450;2022-12-29T08:53:59;6.53;;;2.57;;
36817;SDS011;22761;51.542;16.450;2022-12-29T08:56:27;4.37;;;2.27;;
36817;SDS011;22761;51.542;16.450;2022-12-29T08:58:55;4.57;;;2.40;;
36817;SDS011;22761;51.542;16.450;2022-12-29T09:01:23;4.90;;;2.70;;
36817;SDS011;22761;51.542;16.450;2022-12-29T09:03:50;8.00;;;3.00;;
36817;SDS011;22761;51.542;16.450;2022-12-29T09:06:19;5.47;;;3.70;;
36817;SDS011;22761;51.542;16.450;2022-12-29T09:08:46;10.57;;;3.70;;
36817;SDS011;22761;51.542;16.450;2022-12-29T09:11:23;6.67;;;3.17;;
36817;SDS011;22761;51.542;16.450;2022-12-29T09:13:48;7.67;;;3.40;;
36817;SDS011;22761;51.542;16.450;2022-12-29T09:16:16;4.93;;;2.40;;
36817;SDS011;22761;51.542;16.450;2022-12-29T09:18:45;4.20;;;1.90;;
36817;SDS011;22761;51.542;16.450;2022-12-29T09:21:12;4.63;;;2.20;;
36817;SDS011;22761;51.542;16.450;2022-12-29T09:23:40;6.90;;;3.10;;
36817;SDS011;22761;51.542;16.450;2022-12-29T09:26:07;5.10;;;2.40;;
36817;SDS011;22761;51.542;16.450;2022-12-29T09:28:35;4.80;;;2.60;;
36817;SDS011;22761;51.542;16.450;2022-12-29T09:31:02;3.93;;;2.30;;
36817;SDS011;22761;51.542;16.450;2022-12-29T09:33:31;3.60;;;2.27;;
36817;SDS011;22761;51.542;16.450;2022-12-29T09:36:00;4.97;;;2.20;;
36817;SDS011;22761;51.542;16.450;2022-12-29T09:38:28;5.97;;;2.83;;
36817;SDS011;22761;51.542;16.450;2022-12-29T09:40:56;6.13;;;2.20;;
36817;SDS011;22761;51.542;16.450;2022-12-29T09:43:55;3.92;;;2.15;;
36817;SDS011;22761;51.542;16.450;2022-12-29T09:46:41;4.30;;;1.80;;
36817;SDS011;22761;51.542;16.450;2022-12-29T09:51:52;6.27;;;2.47;;
36817;SDS011;22761;51.542;16.450;2022-12-29T09:54:25;5.80;;;2.63;;
36817;SDS011;22761;51.542;16.450;2022-12-29T09:57:15;5.12;;;2.37;;
36817;SDS011;22761;51.542;16.450;2022-12-29T09:59:53;5.10;;;2.07;;
36817;SDS011;22761;51.542;16.450;2022-12-29T10:05:27;3.07;;;1.90;;
36817;SDS011;22761;51.542;16.450;2022-12-29T10:08:04;5.70;;;2.20;;
36817;SDS011;22761;51.542;16.450;2022-12-29T10:10:48;2.60;;;1.80;;
36817;SDS011;22761;51.542;16.450;2022-12-29T10:16:15;4.43;;;2.07;;
36817;SDS011;22761;51.542;16.450;2022-12-29T10:18:50;2.70;;;1.67;;
36817;SDS011;22761;51.542;16.450;2022-12-29T10:24:35;4.65;;;1.90;;
36817;SDS011;22761;51.542;16.450;2022-12-29T10:27:05;4.60;;;1.87;;
36817;SDS011;22761;51.542;16.450;2022-12-29T10:29:48;4.45;;;2.00;;
36817;SDS011;22761;51.542;16.450;2022-12-29T10:32:17;3.72;;;2.00;;
36817;SDS011;22761;51.542;16.450;2022-12-29T10:34:56;5.15;;;2.60;;
36817;SDS011;22761;51.542;16.450;2022-12-29T10:37:35;6.58;;;3.45;;
36817;SDS011;22761;51.542;16.450;2022-12-29T10:43:23;8.68;;;6.10;;
36817;SDS011;22761;51.542;16.450;2022-12-29T10:46:01;13.93;;;8.50;;
36817;SDS011;22761;51.542;16.450;2022-12-29T10:48:31;10.50;;;6.70;;
36817;SDS011;22761;51.542;16.450;2022-12-29T10:51:07;12.53;;;8.18;;
36817;SDS011;22761;51.542;16.450;2022-12-29T10:56:21;5.33;;;3.80;;
36817;SDS011;22761;51.542;16.450;2022-12-29T11:07:30;5.17;;;3.47;;
36817;SDS011;22761;51.542;16.450;2022-12-29T11:13:02;4.30;;;1.90;;
36817;SDS011;22761;51.542;16.450;2022-12-29T11:15:46;3.08;;;2.00;;
36817;SDS011;22761;51.542;16.450;2022-12-29T11:21:04;2.75;;;1.70;;
36817;SDS011;22761;51.542;16.450;2022-12-29T11:23:36;5.00;;;2.87;;
36817;SDS011;22761;51.542;16.450;2022-12-29T11:31:55;3.50;;;2.10;;
36817;SDS011;22761;51.542;16.450;2022-12-29T11:34:26;3.87;;;1.60;;
36817;SDS011;22761;51.542;16.450;2022-12-29T11:39:55;2.85;;;1.27;;
36817;SDS011;22761;51.542;16.450;2022-12-29T11:44:59;3.42;;;1.30;;
36817;SDS011;22761;51.542;16.450;2022-12-29T11:47:52;5.35;;;2.05;;
36817;SDS011;22761;51.542;16.450;2022-12-29T11:50:22;4.60;;;1.60;;
36817;SDS011;22761;51.542;16.450;2022-12-29T11:53:00;3.75;;;1.80;;
36817;SDS011;22761;51.542;16.450;2022-12-29T11:55:31;3.20;;;1.55;;
36817;SDS011;22761;51.542;16.450;2022-12-29T11:58:00;3.92;;;1.50;;
36817;SDS011;22761;51.542;16.450;2022-12-29T12:00:31;3.17;;;1.40;;
36817;SDS011;22761;51.542;16.450;2022-12-29T12:03:03;2.80;;;1.20;;
36817;SDS011;22761;51.542;16.450;2022-12-29T12:08:41;3.80;;;1.32;;
36817;SDS011;22761;51.542;16.450;2022-12-29T12:11:32;2.22;;;1.40;;
36817;SDS011;22761;51.542;16.450;2022-12-29T12:14:20;3.42;;;2.00;;
36817;SDS011;22761;51.542;16.450;2022-12-29T12:17:04;3.58;;;1.98;;
36817;SDS011;22761;51.542;16.450;2022-12-29T12:19:44;4.65;;;2.55;;
36817;SDS011;22761;51.542;16.450;2022-12-29T12:22:48;10.35;;;4.83;;
36817;SDS011;22761;51.542;16.450;2022-12-29T12:25:17;8.95;;;3.58;;
36817;SDS011;22761;51.542;16.450;2022-12-29T12:30:39;3.52;;;1.80;;
36817;SDS011;22761;51.542;16.450;2022-12-29T12:33:22;3.92;;;1.92;;
36817;SDS011;22761;51.542;16.450;2022-12-29T12:36:04;5.05;;;2.00;;
36817;SDS011;22761;51.542;16.450;2022-12-29T12:39:18;4.70;;;1.90;;
36817;SDS011;22761;51.542;16.450;2022-12-29T12:51:30;7.35;;;4.00;;
36817;SDS011;22761;51.542;16.450;2022-12-29T12:57:15;14.83;;;6.35;;
36817;SDS011;22761;51.542;16.450;2022-12-29T13:00:11;16.70;;;6.17;;
36817;SDS011;22761;51.542;16.450;2022-12-29T13:08:43;10.48;;;4.75;;
36817;SDS011;22761;51.542;16.450;2022-12-29T13:11:12;8.08;;;4.00;;
36817;SDS011;22761;51.542;16.450;2022-12-29T13:21:07;8.10;;;3.83;;
36817;SDS011;22761;51.542;16.450;2022-12-29T13:23:15;3.72;;;2.40;;
36817;SDS011;22761;51.542;16.450;2022-12-29T13:26:02;6.42;;;3.35;;
36817;SDS011;22761;51.542;16.450;2022-12-29T13:37:11;15.93;;;6.62;;
36817;SDS011;22761;51.542;16.450;2022-12-29T13:39:51;12.13;;;5.15;;
36817;SDS011;22761;51.542;16.450;2022-12-29T13:42:19;9.25;;;4.75;;
36817;SDS011;22761;51.542;16.450;2022-12-29T13:44:51;7.15;;;3.92;;
36817;SDS011;22761;51.542;16.450;2022-12-29T13:47:32;9.60;;;4.62;;
36817;SDS011;22761;51.542;16.450;2022-12-29T13:50:13;8.37;;;4.00;;
36817;SDS011;22761;51.542;16.450;2022-12-29T13:52:45;8.73;;;4.90;;
36817;SDS011;22761;51.542;16.450;2022-12-29T13:55:34;13.15;;;8.25;;
36817;SDS011;22761;51.542;16.450;2022-12-29T14:01:17;13.10;;;5.00;;
36817;SDS011;22761;51.542;16.450;2022-12-29T14:04:12;19.63;;;7.30;;
36817;SDS011;22761;51.542;16.450;2022-12-29T14:06:58;10.23;;;5.07;;
36817;SDS011;22761;51.542;16.450;2022-12-29T14:15:06;17.37;;;7.77;;
36817;SDS011;22761;51.542;16.450;2022-12-29T14:17:43;20.27;;;8.40;;
36817;SDS011;22761;51.542;16.450;2022-12-29T14:20:22;20.83;;;8.97;;
36817;SDS011;22761;51.542;16.450;2022-12-29T14:28:33;26.27;;;10.37;;
36817;SDS011;22761;51.542;16.450;2022-12-29T14:36:57;7.37;;;4.23;;
36817;SDS011;22761;51.542;16.450;2022-12-29T14:39:37;7.27;;;3.83;;
36817;SDS011;22761;51.542;16.450;2022-12-29T14:44:50;8.40;;;3.73;;
36817;SDS011;22761;51.542;16.450;2022-12-29T14:58:22;7.23;;;3.60;;
36817;SDS011;22761;51.542;16.450;2022-12-29T15:01:17;6.58;;;3.47;;
36817;SDS011;22761;51.542;16.450;2022-12-29T15:03:51;6.10;;;3.37;;
36817;SDS011;22761;51.542;16.450;2022-12-29T15:06:23;8.97;;;3.80;;
36817;SDS011;22761;51.542;16.450;2022-12-29T15:08:56;10.13;;;4.93;;
36817;SDS011;22761;51.542;16.450;2022-12-29T15:17:01;9.30;;;3.87;;
36817;SDS011;22761;51.542;16.450;2022-12-29T15:19:38;7.93;;;4.50;;
36817;SDS011;22761;51.542;16.450;2022-12-29T15:22:05;11.57;;;5.57;;
36817;SDS011;22761;51.542;16.450;2022-12-29T15:24:35;12.43;;;5.12;;
36817;SDS011;22761;51.542;16.450;2022-12-29T15:27:15;9.27;;;5.00;;
36817;SDS011;22761;51.542;16.450;2022-12-29T15:29:46;12.10;;;5.37;;
36817;SDS011;22761;51.542;16.450;2022-12-29T15:32:24;11.03;;;4.90;;
36817;SDS011;22761;51.542;16.450;2022-12-29T15:34:54;10.93;;;7.08;;
36817;SDS011;22761;51.542;16.450;2022-12-29T15:37:34;24.13;;;10.17;;
36817;SDS011;22761;51.542;16.450;2022-12-29T15:40:02;11.87;;;8.00;;
36817;SDS011;22761;51.542;16.450;2022-12-29T15:42:39;9.18;;;4.78;;
36817;SDS011;22761;51.542;16.450;2022-12-29T15:45:20;26.37;;;10.77;;
36817;SDS011;22761;51.542;16.450;2022-12-29T15:47:54;9.83;;;5.30;;
36817;SDS011;22761;51.542;16.450;2022-12-29T15:50:24;18.60;;;7.90;;
36817;SDS011;22761;51.542;16.450;2022-12-29T15:52:59;9.87;;;5.47;;
36817;SDS011;22761;51.542;16.450;2022-12-29T15:55:32;8.17;;;4.33;;
36817;SDS011;22761;51.542;16.450;2022-12-29T15:58:03;17.80;;;10.80;;
36817;SDS011;22761;51.542;16.450;2022-12-29T16:00:35;7.43;;;4.70;;
36817;SDS011;22761;51.542;16.450;2022-12-29T16:03:04;8.77;;;4.97;;
36817;SDS011;22761;51.542;16.450;2022-12-29T16:05:36;9.80;;;5.63;;
36817;SDS011;22761;51.542;16.450;2022-12-29T16:08:24;11.20;;;6.33;;
36817;SDS011;22761;51.542;16.450;2022-12-29T16:11:01;9.60;;;5.17;;
36817;SDS011;22761;51.542;16.450;2022-12-29T16:13:32;10.70;;;5.93;;
36817;SDS011;22761;51.542;16.450;2022-12-29T16:16:14;11.53;;;5.57;;
36817;SDS011;22761;51.542;16.450;2022-12-29T16:18:57;11.57;;;5.87;;
36817;SDS011;22761;51.542;16.450;2022-12-29T16:21:26;10.10;;;5.60;;
36817;SDS011;22761;51.542;16.450;2022-12-29T16:24:04;11.63;;;7.00;;
36817;SDS011;22761;51.542;16.450;2022-12-29T16:26:34;12.50;;;6.90;;
36817;SDS011;22761;51.542;16.450;2022-12-29T16:29:05;10.67;;;6.30;;
36817;SDS011;22761;51.542;16.450;2022-12-29T16:31:59;11.57;;;6.00;;
36817;SDS011;22761;51.542;16.450;2022-12-29T16:34:25;11.80;;;6.27;;
36817;SDS011;22761;51.542;16.450;2022-12-29T16:37:04;10.13;;;5.57;;
36817;SDS011;22761;51.542;16.450;2022-12-29T16:39:36;10.20;;;5.80;;
36817;SDS011;22761;51.542;16.450;2022-12-29T16:45:20;13.23;;;7.00;;
36817;SDS011;22761;51.542;16.450;2022-12-29T16:50:45;11.10;;;5.87;;
36817;SDS011;22761;51.542;16.450;2022-12-29T16:56:14;10.27;;;5.67;;
36817;SDS011;22761;51.542;16.450;2022-12-29T16:59:01;12.47;;;5.70;;
36817;SDS011;22761;51.542;16.450;2022-12-29T17:01:38;15.10;;;7.10;;
36817;SDS011;22761;51.542;16.450;2022-12-29T17:04:08;12.43;;;6.90;;
36817;SDS011;22761;51.542;16.450;2022-12-29T17:06:38;10.63;;;5.90;;
36817;SDS011;22761;51.542;16.450;2022-12-29T17:09:16;9.80;;;6.20;;
36817;SDS011;22761;51.542;16.450;2022-12-29T17:11:51;13.57;;;8.17;;
36817;SDS011;22761;51.542;16.450;2022-12-29T17:17:33;11.80;;;7.10;;
36817;SDS011;22761;51.542;16.450;2022-12-29T17:23:35;13.35;;;7.30;;
36817;SDS011;22761;51.542;16.450;2022-12-29T17:26:03;11.63;;;6.58;;
36817;SDS011;22761;51.542;16.450;2022-12-29T17:28:44;14.83;;;7.25;;
36817;SDS011;22761;51.542;16.450;2022-12-29T17:31:15;12.63;;;6.77;;
36817;SDS011;22761;51.542;16.450;2022-12-29T17:33:43;11.70;;;6.57;;
36817;SDS011;22761;51.542;16.450;2022-12-29T17:36:13;14.50;;;7.57;;
36817;SDS011;22761;51.542;16.450;2022-12-29T17:38:46;12.53;;;7.60;;
36817;SDS011;22761;51.542;16.450;2022-12-29T17:41:26;10.70;;;7.27;;
36817;SDS011;22761;51.542;16.450;2022-12-29T17:43:54;10.87;;;6.57;;
36817;SDS011;22761;51.542;16.450;2022-12-29T17:46:31;10.33;;;6.53;;
36817;SDS011;22761;51.542;16.450;2022-12-29T17:49:04;13.27;;;7.63;;
36817;SDS011;22761;51.542;16.450;2022-12-29T17:51:44;13.73;;;7.80;;
36817;SDS011;22761;51.542;16.450;2022-12-29T17:54:17;12.60;;;7.30;;
36817;SDS011;22761;51.542;16.450;2022-12-29T17:56:52;11.80;;;7.25;;
36817;SDS011;22761;51.542;16.450;2022-12-29T17:59:21;13.33;;;7.50;;
36817;SDS011;22761;51.542;16.450;2022-12-29T18:01:57;14.87;;;9.90;;
36817;SDS011;22761;51.542;16.450;2022-12-29T18:04:27;24.63;;;14.80;;
36817;SDS011;22761;51.542;16.450;2022-12-29T18:06:55;12.57;;;8.00;;